Amity Harbor, New York
Current Conditions -  °F | °C
As of 8:53 PM on Friday 28 Nov 2014 (Local Time) from KFRG Reporting Station
Clear Clear  
Wind Chill: -4°   Ceiling: Unl
Heat Index: -1°   Visibility: 10mi
Dew Point: -11°   Wind: 6mph
Humidity: 49%   Direction: 310°NW
Pressure: 30.26"   Gusts: NA
Location:  40.6858°N, 73.4152°W
Report Text: KFRG 290153Z 31005KT 10SM CLR M01/M11 A3026 RMK AO2 SLP247 T10111106
Loading
Personal Weather Stations






























Interactive Weather Map New forecast layout! Learn more

10-Day Weather Forecast

Advertisements
Track Severe Weather on mobile